createdAt,value
2019-04-30T00:00:55.811Z,983.23
2019-04-30T00:01:59.038Z,983.26
2019-04-30T00:02:55.773Z,983.25
2019-04-30T00:03:59.383Z,983.29
2019-04-30T00:04:55.757Z,983.24
2019-04-30T00:05:57.497Z,983.24
2019-04-30T00:06:55.777Z,983.25
2019-04-30T00:07:58.478Z,983.21
2019-04-30T00:08:57.707Z,983.23
2019-04-30T00:09:57.593Z,983.25
2019-04-30T00:10:55.700Z,983.23
2019-04-30T00:12:01.015Z,983.24
2019-04-30T00:12:56.671Z,983.27
2019-04-30T00:13:58.694Z,983.25
2019-04-30T00:14:55.637Z,983.23
2019-04-30T00:16:00.141Z,983.23
2019-04-30T00:16:56.624Z,983.23
2019-04-30T00:18:00.221Z,983.23
2019-04-30T00:19:00.445Z,983.28
2019-04-30T00:19:59.839Z,983.27
2019-04-30T00:20:55.591Z,983.26
2019-04-30T00:22:00.122Z,983.29
2019-04-30T00:22:56.547Z,983.29
2019-04-30T00:23:56.144Z,983.27
2019-04-30T00:24:55.751Z,983.25
2019-04-30T00:25:58.327Z,983.24
2019-04-30T00:26:56.516Z,983.25
2019-04-30T00:27:55.981Z,983.21
2019-04-30T00:28:55.535Z,983.24
2019-04-30T00:29:55.852Z,983.24
2019-04-30T00:30:56.198Z,983.18
2019-04-30T00:31:57.627Z,983.22
2019-04-30T00:32:56.426Z,983.24
2019-04-30T00:33:57.833Z,983.18
2019-04-30T00:34:55.647Z,983.18
2019-04-30T00:35:58.007Z,983.16
2019-04-30T00:36:56.002Z,983.18
2019-04-30T00:37:57.614Z,983.20
2019-04-30T00:38:55.369Z,983.17
2019-04-30T00:39:55.666Z,983.16
2019-04-30T00:40:55.801Z,983.16
2019-04-30T00:41:56.708Z,983.17
2019-04-30T00:42:55.945Z,983.16
2019-04-30T00:43:55.311Z,983.16
2019-04-30T00:44:55.535Z,983.19
2019-04-30T00:45:55.382Z,983.18
2019-04-30T00:46:55.886Z,983.19
2019-04-30T00:47:55.975Z,983.19
2019-04-30T00:48:56.794Z,983.18
2019-04-30T00:49:57.523Z,983.16
2019-04-30T00:50:55.786Z,983.18
2019-04-30T00:51:58.168Z,983.15
2019-04-30T00:52:55.549Z,983.14
2019-04-30T00:53:55.795Z,983.15
2019-04-30T00:54:55.383Z,983.17
2019-04-30T00:55:55.599Z,983.15
2019-04-30T00:56:59.340Z,983.18
2019-04-30T00:57:56.149Z,983.14
2019-04-30T00:58:57.750Z,983.20
2019-04-30T00:59:56.119Z,983.16
2019-04-30T01:00:55.503Z,983.17
2019-04-30T01:01:56.331Z,983.20
2019-04-30T01:02:55.579Z,983.17
2019-04-30T01:03:55.820Z,983.18
2019-04-30T01:04:59.286Z,983.21
2019-04-30T01:05:56.062Z,983.20
2019-04-30T01:06:59.914Z,983.16
2019-04-30T01:07:55.128Z,983.14
2019-04-30T01:08:58.251Z,983.14
2019-04-30T01:09:56.014Z,983.15
2019-04-30T01:10:55.588Z,983.15
2019-04-30T01:11:55.349Z,983.12
2019-04-30T01:12:59.783Z,983.11
2019-04-30T01:13:55.966Z,983.09
2019-04-30T01:14:56.996Z,983.09
2019-04-30T01:15:54.937Z,983.08
2019-04-30T01:16:54.940Z,983.10
2019-04-30T01:17:54.968Z,983.04
2019-04-30T01:18:54.929Z,983.04
2019-04-30T01:19:54.998Z,983.04
2019-04-30T01:20:54.890Z,983.05
2019-04-30T01:21:54.899Z,983.01
2019-04-30T01:22:54.861Z,982.98
2019-04-30T01:23:54.971Z,982.99
2019-04-30T01:24:54.841Z,982.95
2019-04-30T01:25:54.904Z,982.96
2019-04-30T01:26:54.811Z,982.92
2019-04-30T01:27:54.812Z,982.89
2019-04-30T01:29:00.554Z,982.95
2019-04-30T01:29:55.774Z,982.92
2019-04-30T01:30:58.814Z,982.92
2019-04-30T01:31:55.754Z,982.87
2019-04-30T01:32:56.659Z,982.92
2019-04-30T01:33:54.735Z,982.90
2019-04-30T01:34:54.817Z,982.86
2019-04-30T01:35:54.717Z,982.87
2019-04-30T01:36:54.756Z,982.88
2019-04-30T01:37:54.707Z,982.88
2019-04-30T01:38:54.681Z,982.88
2019-04-30T01:39:54.758Z,982.92
2019-04-30T01:40:54.683Z,982.92
2019-04-30T01:41:54.689Z,982.87
2019-04-30T01:42:54.650Z,982.84
2019-04-30T01:43:54.630Z,982.87
2019-04-30T01:44:54.610Z,982.88
2019-04-30T01:45:54.661Z,982.86
2019-04-30T01:46:54.582Z,982.87
2019-04-30T01:48:00.715Z,982.88
2019-04-30T01:48:55.572Z,982.87
2019-04-30T01:49:56.001Z,982.88
2019-04-30T01:50:55.555Z,982.88
2019-04-30T01:51:57.281Z,982.85
2019-04-30T01:52:54.545Z,982.91
2019-04-30T01:53:54.605Z,982.92
2019-04-30T01:54:54.495Z,982.88
2019-04-30T01:55:54.545Z,982.87
2019-04-30T01:56:54.466Z,982.88
2019-04-30T01:57:54.517Z,982.90
2019-04-30T01:58:54.457Z,982.90
2019-04-30T01:59:54.447Z,982.89
2019-04-30T02:00:54.427Z,982.86
2019-04-30T02:01:54.448Z,982.85
2019-04-30T02:02:54.429Z,982.87
2019-04-30T02:03:54.492Z,982.87
2019-04-30T02:04:54.379Z,982.89
2019-04-30T02:05:54.371Z,982.85
2019-04-30T02:06:54.381Z,982.93
2019-04-30T02:07:54.461Z,982.93
2019-04-30T02:08:54.351Z,982.92
2019-04-30T02:09:54.392Z,982.91
2019-04-30T02:10:54.363Z,982.92
2019-04-30T02:11:54.314Z,982.86
2019-04-30T02:12:54.394Z,982.92
2019-04-30T02:13:54.295Z,982.89
2019-04-30T02:14:54.338Z,982.90
2019-04-30T02:15:54.257Z,982.87
2019-04-30T02:16:54.248Z,982.84
2019-04-30T02:17:54.347Z,982.83
2019-04-30T02:18:54.246Z,982.83
2019-04-30T02:19:56.827Z,982.87
2019-04-30T02:20:54.200Z,982.78
2019-04-30T02:21:54.198Z,982.83
2019-04-30T02:22:54.179Z,982.83
2019-04-30T02:23:54.289Z,982.85
2019-04-30T02:24:54.149Z,982.84
2019-04-30T02:25:55.209Z,982.81
2019-04-30T02:26:54.142Z,982.79
2019-04-30T02:27:54.221Z,982.80
2019-04-30T02:28:54.123Z,982.82
2019-04-30T02:29:54.161Z,982.80
2019-04-30T02:30:54.103Z,982.83
2019-04-30T02:31:54.098Z,982.84
2019-04-30T02:32:54.164Z,982.86
2019-04-30T02:33:54.077Z,982.90
2019-04-30T02:34:55.115Z,982.92
2019-04-30T02:35:54.034Z,982.86
2019-04-30T02:36:54.135Z,982.89
2019-04-30T02:37:54.023Z,982.92
2019-04-30T02:38:54.106Z,982.90
2019-04-30T02:39:53.991Z,982.91
2019-04-30T02:40:54.026Z,982.89
2019-04-30T02:41:53.971Z,982.89
2019-04-30T02:42:54.039Z,982.88
2019-04-30T02:43:54.050Z,982.89
2019-04-30T02:44:53.940Z,982.90
2019-04-30T02:45:53.940Z,982.85
2019-04-30T02:46:53.901Z,982.89
2019-04-30T02:47:53.985Z,982.86
2019-04-30T02:48:53.913Z,982.92
2019-04-30T02:49:53.872Z,982.87
2019-04-30T02:50:53.891Z,982.84
2019-04-30T02:51:53.842Z,982.85
2019-04-30T02:52:53.923Z,982.83
2019-04-30T02:53:53.844Z,982.79
2019-04-30T02:54:53.813Z,982.76
2019-04-30T02:55:53.816Z,982.77
2019-04-30T02:56:53.895Z,982.75
2019-04-30T02:57:53.775Z,982.74
2019-04-30T02:58:53.877Z,982.71
2019-04-30T02:59:53.767Z,982.73
2019-04-30T03:00:53.767Z,982.76
2019-04-30T03:01:53.728Z,982.76
2019-04-30T03:02:53.808Z,982.76
2019-04-30T03:03:53.771Z,982.76
2019-04-30T03:04:53.739Z,982.77
2019-04-30T03:05:53.689Z,982.77
2019-04-30T03:06:53.780Z,982.78
2019-04-30T03:07:53.718Z,982.78
2019-04-30T03:08:53.711Z,982.81
2019-04-30T03:09:53.651Z,982.79
2019-04-30T03:10:53.633Z,982.83
2019-04-30T03:11:53.632Z,982.79
2019-04-30T03:12:53.690Z,982.79
2019-04-30T03:13:53.593Z,982.82
2019-04-30T03:14:53.674Z,982.85
2019-04-30T03:15:53.587Z,982.78
2019-04-30T03:16:53.579Z,982.81
2019-04-30T03:17:53.558Z,982.80
2019-04-30T03:18:53.595Z,982.80
2019-04-30T03:19:53.557Z,982.82
2019-04-30T03:20:53.628Z,982.78
2019-04-30T03:21:53.613Z,982.75
2019-04-30T03:22:53.508Z,982.77
2019-04-30T03:23:53.547Z,982.74
2019-04-30T03:24:53.489Z,982.75
2019-04-30T03:25:54.498Z,982.82
2019-04-30T03:26:53.471Z,982.76
2019-04-30T03:27:53.499Z,982.78
2019-04-30T03:28:53.420Z,982.76
2019-04-30T03:29:53.490Z,982.74
2019-04-30T03:30:57.678Z,982.77
2019-04-30T03:31:55.428Z,982.74
2019-04-30T03:32:57.030Z,982.76
2019-04-30T03:33:53.381Z,982.75
2019-04-30T03:34:53.435Z,982.74
2019-04-30T03:35:54.926Z,982.75
2019-04-30T03:36:53.444Z,982.80
2019-04-30T03:37:53.324Z,982.79
2019-04-30T03:38:53.364Z,982.74
2019-04-30T03:39:53.315Z,982.78
2019-04-30T03:40:54.316Z,982.76
2019-04-30T03:41:53.286Z,982.72
2019-04-30T03:42:53.337Z,982.77
2019-04-30T03:43:53.297Z,982.75
2019-04-30T03:44:53.258Z,982.75
2019-04-30T03:45:53.341Z,982.76
2019-04-30T03:46:53.218Z,982.79
2019-04-30T03:47:53.278Z,982.87
2019-04-30T03:48:53.229Z,982.83
2019-04-30T03:49:53.212Z,982.91
2019-04-30T03:50:56.885Z,982.87
2019-04-30T03:51:53.160Z,982.89
2019-04-30T03:52:53.217Z,982.94
2019-04-30T03:53:53.163Z,982.92
2019-04-30T03:54:53.142Z,982.95
2019-04-30T03:55:54.142Z,982.98
2019-04-30T03:56:53.116Z,983.02
2019-04-30T03:57:54.183Z,982.97
2019-04-30T03:58:53.087Z,982.96
2019-04-30T03:59:53.090Z,982.93
2019-04-30T04:00:53.066Z,982.94
2019-04-30T04:01:53.136Z,983.02
2019-04-30T04:02:53.036Z,983.02
2019-04-30T04:03:53.066Z,982.99
2019-04-30T04:04:53.041Z,983.01
2019-04-30T04:05:53.017Z,982.99
2019-04-30T04:06:54.098Z,983.00
2019-04-30T04:07:53.292Z,983.00
2019-04-30T04:08:53.009Z,983.02
2019-04-30T04:09:52.960Z,982.99
2019-04-30T04:10:53.295Z,983.06
2019-04-30T04:11:52.932Z,983.05
2019-04-30T04:12:52.981Z,983.06
2019-04-30T04:13:52.917Z,983.05
2019-04-30T04:14:53.011Z,983.07
2019-04-30T04:15:52.915Z,983.10
2019-04-30T04:16:52.883Z,983.14
2019-04-30T04:17:53.944Z,983.14
2019-04-30T04:18:52.875Z,983.18
2019-04-30T04:19:52.956Z,983.17
2019-04-30T04:21:07.500Z,983.14
2019-04-30T04:21:53.814Z,983.12
2019-04-30T04:22:52.854Z,983.17
2019-04-30T04:23:52.804Z,983.14
2019-04-30T04:24:52.911Z,983.19
2019-04-30T04:25:52.788Z,983.14
2019-04-30T04:26:53.862Z,983.17
2019-04-30T04:27:52.762Z,983.17
2019-04-30T04:28:53.787Z,983.13
2019-04-30T04:29:52.733Z,983.15
2019-04-30T04:30:52.854Z,983.18
2019-04-30T04:31:52.720Z,983.14
2019-04-30T04:32:52.704Z,983.20
2019-04-30T04:33:52.893Z,983.17
2019-04-30T04:34:52.782Z,983.17
2019-04-30T04:35:52.681Z,983.23
2019-04-30T04:36:52.712Z,983.23
2019-04-30T04:37:52.644Z,983.24
2019-04-30T04:38:53.673Z,983.25
2019-04-30T04:39:52.623Z,983.23
2019-04-30T04:40:53.654Z,983.22
2019-04-30T04:41:52.594Z,983.28
2019-04-30T04:42:52.624Z,983.25
2019-04-30T04:43:52.585Z,983.26
2019-04-30T04:44:52.656Z,983.27
2019-04-30T04:45:52.576Z,983.24
2019-04-30T04:46:52.595Z,983.31
2019-04-30T04:47:52.546Z,983.28
2019-04-30T04:48:52.517Z,983.27
2019-04-30T04:49:53.822Z,983.30
2019-04-30T04:50:52.619Z,983.30
2019-04-30T04:51:52.486Z,983.27
2019-04-30T04:52:52.509Z,983.34
2019-04-30T04:53:52.459Z,983.32
2019-04-30T04:54:52.469Z,983.35
2019-04-30T04:55:52.550Z,983.33
2019-04-30T04:56:54.776Z,983.35
2019-04-30T04:57:53.422Z,983.35
2019-04-30T04:58:52.521Z,983.39
2019-04-30T04:59:52.484Z,983.36
2019-04-30T05:00:52.393Z,983.39
2019-04-30T05:01:52.423Z,983.40
2019-04-30T05:02:52.366Z,983.36
2019-04-30T05:03:53.374Z,983.39
2019-04-30T05:04:52.345Z,983.35
2019-04-30T05:05:52.445Z,983.40
2019-04-30T05:06:52.318Z,983.39
2019-04-30T05:07:52.326Z,983.39
2019-04-30T05:08:52.286Z,983.38
2019-04-30T05:09:52.372Z,983.39
2019-04-30T05:10:52.378Z,983.40
2019-04-30T05:11:52.270Z,983.42
2019-04-30T05:12:52.268Z,983.35
2019-04-30T05:13:52.239Z,983.41
2019-04-30T05:14:52.298Z,983.38
2019-04-30T05:15:52.259Z,983.41
2019-04-30T05:16:52.249Z,983.44
2019-04-30T05:17:52.190Z,983.47
2019-04-30T05:18:52.271Z,983.49
2019-04-30T05:19:52.162Z,983.52
2019-04-30T05:20:52.213Z,983.57
2019-04-30T05:21:52.163Z,983.58
2019-04-30T05:22:52.143Z,983.58
2019-04-30T05:23:52.113Z,983.55
2019-04-30T05:24:53.214Z,983.56
2019-04-30T05:25:52.105Z,983.60
2019-04-30T05:26:52.103Z,983.54
2019-04-30T05:27:52.074Z,983.60
2019-04-30T05:28:54.107Z,983.53
2019-04-30T05:29:52.058Z,983.59
2019-04-30T05:30:52.096Z,983.62
2019-04-30T05:31:52.037Z,983.57
2019-04-30T05:32:52.028Z,983.64
2019-04-30T05:33:51.997Z,983.66
2019-04-30T05:34:52.068Z,983.64
2019-04-30T05:35:51.991Z,983.66
2019-04-30T05:36:52.050Z,983.63
2019-04-30T05:37:51.962Z,983.67
2019-04-30T05:38:52.030Z,983.69
2019-04-30T05:39:51.940Z,983.69
2019-04-30T05:40:51.972Z,983.66
2019-04-30T05:41:51.931Z,983.72
2019-04-30T05:42:52.012Z,983.67
2019-04-30T05:43:51.896Z,983.75
2019-04-30T05:44:51.955Z,983.72
2019-04-30T05:45:51.864Z,983.78
2019-04-30T05:46:51.923Z,983.75
2019-04-30T05:47:51.865Z,983.73
2019-04-30T05:48:51.834Z,983.72
2019-04-30T05:49:51.885Z,983.77
2019-04-30T05:50:51.912Z,983.73
2019-04-30T05:51:55.450Z,983.71
2019-04-30T05:52:51.788Z,983.79
2019-04-30T05:53:51.858Z,983.79
2019-04-30T05:54:51.777Z,983.73
2019-04-30T05:55:51.800Z,983.74
2019-04-30T05:56:51.758Z,983.77
2019-04-30T05:57:55.204Z,983.77
2019-04-30T05:58:51.730Z,983.74
2019-04-30T05:59:51.722Z,983.72
2019-04-30T06:00:51.730Z,983.81
2019-04-30T06:01:51.702Z,983.75
2019-04-30T06:02:51.771Z,983.75
2019-04-30T06:03:51.672Z,983.78
2019-04-30T06:04:51.652Z,983.80
2019-04-30T06:05:51.653Z,983.82
2019-04-30T06:06:51.693Z,983.81
2019-04-30T06:07:52.180Z,983.78
2019-04-30T06:08:51.674Z,983.79
2019-04-30T06:09:51.594Z,983.80
2019-04-30T06:10:51.921Z,983.87
2019-04-30T06:11:51.585Z,983.87
2019-04-30T06:12:51.645Z,983.90
2019-04-30T06:13:51.557Z,983.84
2019-04-30T06:14:52.607Z,983.88
2019-04-30T06:15:51.538Z,983.79
2019-04-30T06:16:51.745Z,983.79
2019-04-30T06:17:59.691Z,983.77
2019-04-30T06:18:52.500Z,983.79
2019-04-30T06:19:51.736Z,983.80
2019-04-30T06:20:51.470Z,983.79
2019-04-30T06:21:51.501Z,983.76
2019-04-30T06:22:52.200Z,983.80
2019-04-30T06:23:51.491Z,983.81
2019-04-30T06:24:51.421Z,983.82
2019-04-30T06:25:57.522Z,983.86
2019-04-30T06:26:52.426Z,983.82
2019-04-30T06:27:51.473Z,983.82
2019-04-30T06:28:51.354Z,983.81
2019-04-30T06:29:51.413Z,983.78
2019-04-30T06:30:51.355Z,983.80
2019-04-30T06:31:51.386Z,983.86
2019-04-30T06:32:51.358Z,983.75
2019-04-30T06:33:51.377Z,983.76
2019-04-30T06:34:51.326Z,983.74
2019-04-30T06:35:51.409Z,983.74
2019-04-30T06:36:53.795Z,983.71
2019-04-30T06:37:51.301Z,983.77
2019-04-30T06:38:51.320Z,983.71
2019-04-30T06:39:51.250Z,983.73
2019-04-30T06:40:51.360Z,983.76
2019-04-30T06:41:51.241Z,983.74
2019-04-30T06:42:51.231Z,983.74
2019-04-30T06:43:51.202Z,983.76
2019-04-30T06:44:52.256Z,983.72
2019-04-30T06:45:51.440Z,983.73
2019-04-30T06:46:51.264Z,983.79
2019-04-30T06:47:51.184Z,983.71
2019-04-30T06:48:51.158Z,983.75
2019-04-30T06:49:51.135Z,983.74
2019-04-30T06:50:51.236Z,983.77
2019-04-30T06:51:51.126Z,983.71
2019-04-30T06:52:56.882Z,983.69
2019-04-30T06:53:52.087Z,983.72
2019-04-30T06:54:51.127Z,983.76
2019-04-30T06:55:51.080Z,983.78
2019-04-30T06:56:51.140Z,983.75
2019-04-30T06:57:51.147Z,983.71
2019-04-30T06:58:52.676Z,983.72
2019-04-30T06:59:51.546Z,983.74
2019-04-30T07:00:51.112Z,983.74
2019-04-30T07:01:51.002Z,983.71
2019-04-30T07:02:52.127Z,983.75
2019-04-30T07:03:50.983Z,983.74
2019-04-30T07:04:50.963Z,983.76
2019-04-30T07:05:50.954Z,983.75
2019-04-30T07:06:51.034Z,983.72
2019-04-30T07:07:53.321Z,983.71
2019-04-30T07:08:55.714Z,983.67
2019-04-30T07:09:58.020Z,983.66
2019-04-30T07:10:55.650Z,983.62
2019-04-30T07:11:52.003Z,983.61
2019-04-30T07:12:50.888Z,983.66
2019-04-30T07:13:52.130Z,983.69
2019-04-30T07:14:50.870Z,983.69
2019-04-30T07:15:50.839Z,983.66
2019-04-30T07:16:50.830Z,983.66
2019-04-30T07:17:50.923Z,983.65
2019-04-30T07:18:50.822Z,983.68
2019-04-30T07:19:56.390Z,983.64
2019-04-30T07:20:51.804Z,983.60
2019-04-30T07:21:50.786Z,983.63
2019-04-30T07:22:58.862Z,983.63
2019-04-30T07:23:51.764Z,983.61
2019-04-30T07:24:50.855Z,983.68
2019-04-30T07:25:51.640Z,983.64
2019-04-30T07:26:54.614Z,983.65
2019-04-30T07:27:51.728Z,983.67
2019-04-30T07:28:54.774Z,983.64
2019-04-30T07:29:50.688Z,983.63
2019-04-30T07:31:07.184Z,983.68
2019-04-30T07:31:51.871Z,983.70
2019-04-30T07:32:50.711Z,983.67
2019-04-30T07:33:53.703Z,983.71
2019-04-30T07:34:50.731Z,983.68
2019-04-30T07:35:50.632Z,983.72
2019-04-30T07:37:10.386Z,983.64
2019-04-30T07:37:54.656Z,983.64
2019-04-30T07:38:56.137Z,983.68
2019-04-30T07:39:51.604Z,983.62
2019-04-30T07:40:50.569Z,983.69
2019-04-30T07:41:50.608Z,983.76
2019-04-30T07:42:50.556Z,983.75
2019-04-30T07:43:50.557Z,983.80
2019-04-30T07:44:50.517Z,983.75
2019-04-30T07:45:50.578Z,983.77
2019-04-30T07:46:50.511Z,983.76
2019-04-30T07:47:50.519Z,983.77
2019-04-30T07:48:50.502Z,983.82
2019-04-30T07:49:55.084Z,983.77
2019-04-30T07:50:52.259Z,983.79
2019-04-30T07:51:51.853Z,983.81
2019-04-30T07:53:01.553Z,983.87
2019-04-30T07:53:51.446Z,983.82
2019-04-30T07:54:51.958Z,983.80
2019-04-30T07:55:50.408Z,983.81
2019-04-30T07:56:50.861Z,983.74
2019-04-30T07:57:50.842Z,983.76
2019-04-30T07:58:52.477Z,983.84
2019-04-30T07:59:50.358Z,983.78
2019-04-30T08:00:55.429Z,983.81
2019-04-30T08:02:06.277Z,983.83
2019-04-30T08:02:51.317Z,983.81
2019-04-30T08:03:52.759Z,983.83
2019-04-30T08:04:51.449Z,983.84
2019-04-30T08:05:50.292Z,983.84
2019-04-30T08:06:50.338Z,983.84
2019-04-30T08:07:50.355Z,983.84
2019-04-30T08:08:52.748Z,983.82
2019-04-30T08:09:51.342Z,983.83
2019-04-30T08:10:51.033Z,983.84
2019-04-30T08:11:50.214Z,983.82
2019-04-30T08:12:51.146Z,983.78
2019-04-30T08:13:50.856Z,983.84
2019-04-30T08:14:50.207Z,983.83
2019-04-30T08:15:52.276Z,983.87
2019-04-30T08:16:51.102Z,983.88
2019-04-30T08:18:02.193Z,983.85
2019-04-30T08:18:51.139Z,983.83
2019-04-30T08:19:50.249Z,983.86
2019-04-30T08:20:50.109Z,983.87
2019-04-30T08:21:50.129Z,983.86
2019-04-30T08:22:50.102Z,983.93
2019-04-30T08:23:50.077Z,983.91
2019-04-30T08:24:50.181Z,983.90
2019-04-30T08:25:50.051Z,983.88
2019-04-30T08:26:50.074Z,983.87
2019-04-30T08:27:50.024Z,983.91
2019-04-30T08:28:50.016Z,983.87
2019-04-30T08:29:50.171Z,983.90
2019-04-30T08:30:50.007Z,983.91
2019-04-30T08:31:51.037Z,983.94
2019-04-30T08:32:50.160Z,983.85
2019-04-30T08:33:49.969Z,983.89
2019-04-30T08:34:50.261Z,983.87
2019-04-30T08:35:50.159Z,983.92
2019-04-30T08:36:51.528Z,983.90
2019-04-30T08:37:49.920Z,983.92
2019-04-30T08:38:49.991Z,983.91
2019-04-30T08:39:49.938Z,983.88
2019-04-30T08:40:56.014Z,983.88
2019-04-30T08:41:50.863Z,983.83
2019-04-30T08:42:49.963Z,983.85
2019-04-30T08:43:49.873Z,983.85
2019-04-30T08:44:49.854Z,983.87
2019-04-30T08:45:49.826Z,983.84
2019-04-30T08:46:49.836Z,983.88
2019-04-30T08:47:49.797Z,983.92
2019-04-30T08:48:53.600Z,983.94
2019-04-30T08:49:50.420Z,983.94
2019-04-30T08:50:50.258Z,983.95
2019-04-30T08:51:50.273Z,983.98
2019-04-30T08:52:50.196Z,983.94
2019-04-30T08:53:49.810Z,984.00
2019-04-30T08:54:49.774Z,984.05
2019-04-30T08:55:49.722Z,984.02
2019-04-30T08:56:50.398Z,983.99
2019-04-30T08:57:50.128Z,984.05
2019-04-30T08:58:49.686Z,984.08
2019-04-30T08:59:49.764Z,983.97
2019-04-30T09:00:49.655Z,984.00
2019-04-30T09:01:49.656Z,984.03
2019-04-30T09:02:49.645Z,983.96
2019-04-30T09:03:51.330Z,983.96
2019-04-30T09:04:49.627Z,983.97
2019-04-30T09:05:49.998Z,984.09
2019-04-30T09:06:49.762Z,984.06
2019-04-30T09:07:49.576Z,983.87
2019-04-30T09:08:49.640Z,983.90
2019-04-30T09:09:49.580Z,983.91
2019-04-30T09:10:49.571Z,983.96
2019-04-30T09:11:55.209Z,983.93
2019-04-30T09:12:52.007Z,984.03
2019-04-30T09:13:49.521Z,984.03
2019-04-30T09:14:49.585Z,983.94
2019-04-30T09:15:49.483Z,983.91
2019-04-30T09:16:51.391Z,983.93
2019-04-30T09:18:00.826Z,984.00
2019-04-30T09:18:50.455Z,984.03
2019-04-30T09:19:50.549Z,984.07
2019-04-30T09:20:49.643Z,984.09
2019-04-30T09:21:49.518Z,984.09
2019-04-30T09:22:49.674Z,984.00
2019-04-30T09:23:52.458Z,983.98
2019-04-30T09:24:49.803Z,984.02
2019-04-30T09:25:49.812Z,984.11
2019-04-30T09:26:49.432Z,983.98
2019-04-30T09:27:49.430Z,984.00
2019-04-30T09:28:49.545Z,983.99
2019-04-30T09:29:49.428Z,983.96
2019-04-30T09:30:49.443Z,983.98
2019-04-30T09:31:49.448Z,983.95
2019-04-30T09:32:49.953Z,983.95
2019-04-30T09:33:49.433Z,984.05
2019-04-30T09:34:49.285Z,984.13
2019-04-30T09:35:49.621Z,984.12
2019-04-30T09:36:49.361Z,983.99
2019-04-30T09:37:49.749Z,983.97
2019-04-30T09:38:50.238Z,984.04
2019-04-30T09:39:49.612Z,984.07
2019-04-30T09:40:50.773Z,984.05
2019-04-30T09:41:50.212Z,984.01
2019-04-30T09:42:49.181Z,984.10
2019-04-30T09:43:49.468Z,984.02
2019-04-30T09:44:49.450Z,984.08
2019-04-30T09:45:49.795Z,984.13
2019-04-30T09:46:49.143Z,984.10
2019-04-30T09:47:50.559Z,984.17
2019-04-30T09:48:50.874Z,984.15
2019-04-30T09:49:49.510Z,984.13
2019-04-30T09:50:50.056Z,984.12
2019-04-30T09:51:49.662Z,984.04
2019-04-30T09:52:49.701Z,984.06
2019-04-30T09:53:56.888Z,984.09
2019-04-30T09:54:50.804Z,984.03
2019-04-30T09:55:49.646Z,984.08
2019-04-30T09:56:49.651Z,984.02
2019-04-30T09:57:49.021Z,984.02
2019-04-30T09:58:49.294Z,984.04
2019-04-30T09:59:49.005Z,983.99
2019-04-30T10:00:50.343Z,984.00
2019-04-30T10:01:48.982Z,983.97
2019-04-30T10:02:49.073Z,983.91
2019-04-30T10:03:50.519Z,983.93
2019-04-30T10:04:49.454Z,983.90
2019-04-30T10:05:49.198Z,983.85
2019-04-30T10:06:50.192Z,983.80
2019-04-30T10:07:49.383Z,983.83
2019-04-30T10:08:51.267Z,983.83
2019-04-30T10:09:50.881Z,983.81
2019-04-30T10:10:48.880Z,983.83
2019-04-30T10:11:50.069Z,983.76
2019-04-30T10:12:49.349Z,983.80
2019-04-30T10:13:48.830Z,983.81
2019-04-30T10:14:49.409Z,983.77
2019-04-30T10:15:50.182Z,983.74
2019-04-30T10:16:49.507Z,983.77
2019-04-30T10:17:49.872Z,983.64
2019-04-30T10:18:48.793Z,983.72
2019-04-30T10:19:49.266Z,983.77
2019-04-30T10:20:48.764Z,983.71
2019-04-30T10:21:49.072Z,983.77
2019-04-30T10:22:49.535Z,983.84
2019-04-30T10:23:49.887Z,983.76
2019-04-30T10:24:49.429Z,983.82
2019-04-30T10:25:48.697Z,983.78
2019-04-30T10:26:48.799Z,983.79
2019-04-30T10:27:49.788Z,983.77
2019-04-30T10:28:48.709Z,983.68
2019-04-30T10:29:49.321Z,983.71
2019-04-30T10:30:48.640Z,983.71
2019-04-30T10:31:49.031Z,983.63
2019-04-30T10:32:50.059Z,983.59
2019-04-30T10:33:48.681Z,983.58
2019-04-30T10:34:48.702Z,983.53
2019-04-30T10:35:49.603Z,983.70
2019-04-30T10:36:49.474Z,983.83
2019-04-30T10:37:48.627Z,983.72
2019-04-30T10:38:49.421Z,983.69
2019-04-30T10:39:49.092Z,983.68
2019-04-30T10:40:48.810Z,983.63
2019-04-30T10:41:48.528Z,983.58
2019-04-30T10:42:48.905Z,983.53
2019-04-30T10:43:49.220Z,983.53
2019-04-30T10:44:48.499Z,983.47
2019-04-30T10:45:49.515Z,983.58
2019-04-30T10:46:48.520Z,983.66
2019-04-30T10:47:49.227Z,983.69
2019-04-30T10:48:48.432Z,983.62
2019-04-30T10:49:48.729Z,983.61
2019-04-30T10:50:49.215Z,983.54
2019-04-30T10:51:48.473Z,983.52
2019-04-30T10:52:49.137Z,983.61
2019-04-30T10:53:48.605Z,983.47
2019-04-30T10:54:49.600Z,983.47
2019-04-30T10:55:48.662Z,983.45
2019-04-30T10:56:49.028Z,983.60
2019-04-30T10:57:49.518Z,983.55
2019-04-30T10:58:48.335Z,983.54
2019-04-30T10:59:48.738Z,983.55
2019-04-30T11:00:49.871Z,983.56
2019-04-30T11:01:49.333Z,983.53
2019-04-30T11:02:49.681Z,983.49
2019-04-30T11:03:48.380Z,983.47
2019-04-30T11:04:48.271Z,983.40
2019-04-30T11:05:48.813Z,983.52
2019-04-30T11:06:48.262Z,983.45
2019-04-30T11:07:49.507Z,983.38
2019-04-30T11:08:48.205Z,983.43
2019-04-30T11:09:49.343Z,983.45
2019-04-30T11:10:48.254Z,983.47
2019-04-30T11:11:49.713Z,983.58
2019-04-30T11:12:49.252Z,983.61
2019-04-30T11:13:48.147Z,983.67
2019-04-30T11:14:48.153Z,983.54
2019-04-30T11:15:49.186Z,983.56
2019-04-30T11:16:51.214Z,983.57
2019-04-30T11:17:49.603Z,983.51
2019-04-30T11:18:48.444Z,983.41
2019-04-30T11:19:49.299Z,983.44
2019-04-30T11:20:49.783Z,983.46
2019-04-30T11:21:48.306Z,983.49
2019-04-30T11:22:48.193Z,983.49
2019-04-30T11:23:49.482Z,983.35
2019-04-30T11:24:58.351Z,983.41
2019-04-30T11:25:51.141Z,983.37
2019-04-30T11:26:50.181Z,983.43
2019-04-30T11:27:50.415Z,983.40
2019-04-30T11:28:48.131Z,983.37
2019-04-30T11:29:49.466Z,983.36
2019-04-30T11:30:48.149Z,983.25
2019-04-30T11:31:48.217Z,983.17
2019-04-30T11:32:48.184Z,983.24
2019-04-30T11:33:48.346Z,983.18
2019-04-30T11:34:47.981Z,983.15
2019-04-30T11:35:56.552Z,983.20
2019-04-30T11:36:48.911Z,983.26
2019-04-30T11:37:47.931Z,983.21
2019-04-30T11:38:48.753Z,983.22
2019-04-30T11:39:47.923Z,983.23
2019-04-30T11:40:48.617Z,983.30
2019-04-30T11:41:47.871Z,983.23
2019-04-30T11:42:47.856Z,983.25
2019-04-30T11:43:49.846Z,983.17
2019-04-30T11:44:48.780Z,983.15
2019-04-30T11:45:47.838Z,983.11
2019-04-30T11:46:49.493Z,983.15
2019-04-30T11:47:53.645Z,983.14
2019-04-30T11:48:49.059Z,983.20
2019-04-30T11:49:47.758Z,983.21
2019-04-30T11:50:49.700Z,983.07
2019-04-30T11:51:47.740Z,983.08
2019-04-30T11:52:47.741Z,983.22
2019-04-30T11:53:49.057Z,983.29
2019-04-30T11:54:55.532Z,983.25
2019-04-30T11:55:49.176Z,983.20
2019-04-30T11:56:50.313Z,983.26
2019-04-30T11:57:49.407Z,983.24
2019-04-30T11:58:48.908Z,983.17
2019-04-30T11:59:47.688Z,983.13
2019-04-30T12:00:49.332Z,983.10
2019-04-30T12:01:47.727Z,983.10
2019-04-30T12:02:52.491Z,983.08
2019-04-30T12:03:49.775Z,983.07
2019-04-30T12:04:49.402Z,983.08
2019-04-30T12:05:49.111Z,983.04
2019-04-30T12:06:47.559Z,983.07
2019-04-30T12:07:50.636Z,983.05
2019-04-30T12:08:49.178Z,983.00
2019-04-30T12:09:48.495Z,982.94
2019-04-30T12:10:47.522Z,982.96
2019-04-30T12:11:50.557Z,982.97
2019-04-30T12:12:49.527Z,982.94
2019-04-30T12:13:47.506Z,982.98
2019-04-30T12:14:49.329Z,983.01
2019-04-30T12:15:50.046Z,983.08
2019-04-30T12:16:47.559Z,983.11
2019-04-30T12:17:47.448Z,983.07
2019-04-30T12:18:48.547Z,982.95
2019-04-30T12:19:48.839Z,983.01
2019-04-30T12:20:47.418Z,983.05
2019-04-30T12:21:47.489Z,983.04
2019-04-30T12:22:49.212Z,983.06
2019-04-30T12:23:47.479Z,983.01
2019-04-30T12:24:48.869Z,983.01
2019-04-30T12:25:49.258Z,983.02
2019-04-30T12:26:48.874Z,982.94
2019-04-30T12:27:48.813Z,982.91
2019-04-30T12:28:47.403Z,982.90